createdAt,value
2019-02-05T00:13:49.100Z,6.94
2019-02-05T00:33:48.608Z,9.65
2019-02-05T00:53:58.184Z,10.15
2019-02-05T01:14:09.979Z,9.01
2019-02-05T01:34:09.492Z,10.77
2019-02-05T01:54:18.959Z,9.88
2019-02-05T02:14:30.870Z,9.28
2019-02-05T02:34:30.385Z,10.50
2019-02-05T02:54:42.201Z,7.72
2019-02-05T03:14:41.719Z,11.80
2019-02-05T03:34:53.559Z,8.18
2019-02-05T03:54:53.202Z,8.95
2019-02-05T04:15:02.668Z,9.79
2019-02-05T04:35:12.225Z,7.38
2019-02-05T04:55:21.808Z,9.39
2019-02-05T05:15:34.126Z,11.13
2019-02-05T05:35:41.843Z,11.77
2019-02-05T05:55:42.903Z,16.30
2019-02-05T06:15:54.890Z,16.07
2019-02-05T06:35:55.017Z,17.74
2019-02-05T06:55:54.567Z,15.95
2019-02-05T07:16:06.747Z,17.56
2019-02-05T07:36:06.154Z,15.30
2019-02-05T07:56:15.855Z,13.31
2019-02-05T08:16:25.432Z,16.92
2019-02-05T08:36:34.969Z,11.74
2019-02-05T08:56:44.550Z,11.88
2019-02-05T09:16:54.072Z,13.67
2019-02-05T09:37:03.749Z,12.43
2019-02-05T09:57:13.250Z,12.97
2019-02-05T10:17:22.765Z,12.69
2019-02-05T10:37:34.569Z,19.13
2019-02-05T10:57:34.183Z,10.21
2019-02-05T11:17:43.704Z,10.04
2019-02-05T11:37:53.294Z,11.07
2019-02-05T11:58:02.999Z,15.53
2019-02-05T12:18:12.832Z,10.47
2019-02-05T12:38:25.842Z,9.59
2019-02-05T12:58:25.781Z,11.75
2019-02-05T13:18:35.304Z,9.69
2019-02-05T13:38:44.878Z,27.74
2019-02-05T13:58:56.904Z,14.57
2019-02-05T14:18:56.376Z,11.83
2019-02-05T14:39:06.116Z,10.52
2019-02-05T14:59:15.954Z,10.22
2019-02-05T15:19:25.708Z,10.04
2019-02-05T15:39:35.381Z,14.29
2019-02-05T15:59:45.015Z,13.62
2019-02-05T16:19:54.480Z,13.08
2019-02-05T16:40:05.192Z,14.34
2019-02-05T17:00:04.684Z,11.83
2019-02-05T17:20:11.335Z,17.66
2019-02-05T17:40:24.017Z,13.92
2019-02-05T18:00:29.723Z,13.89
2019-02-05T18:20:34.446Z,20.78
2019-02-05T18:40:36.480Z,15.52
2019-02-05T19:00:41.227Z,13.41
2019-02-05T19:20:41.395Z,14.65
2019-02-05T19:40:40.846Z,16.15
2019-02-05T20:01:00.799Z,15.86
2019-02-05T20:21:00.410Z,16.53
2019-02-05T20:41:10.390Z,15.68
2019-02-05T21:01:10.223Z,18.42
2019-02-05T21:21:19.880Z,18.63
2019-02-05T21:41:29.475Z,17.36
2019-02-05T22:01:41.380Z,28.84
2019-02-05T22:21:40.890Z,28.58
2019-02-05T22:41:50.418Z,35.72
2019-02-05T23:01:59.893Z,45.12
2019-02-05T23:22:08.051Z,52.47
2019-02-05T23:42:17.530Z,38.25
